createdAt,value
2022-12-04T00:01:12.423Z,72.85
2022-12-04T00:03:39.579Z,71.38
2022-12-04T00:06:12.197Z,71.92
2022-12-04T00:08:39.215Z,73.25
2022-12-04T00:11:07.161Z,72.48
2022-12-04T00:13:34.586Z,72.93
2022-12-04T00:16:01.321Z,72.53
2022-12-04T00:18:27.915Z,72.27
2022-12-04T00:20:54.456Z,72.44
2022-12-04T00:23:21.041Z,73.17
2022-12-04T00:25:48.675Z,72.55
2022-12-04T00:28:18.716Z,71.90
2022-12-04T00:30:45.816Z,71.82
2022-12-04T00:33:13.697Z,72.93
2022-12-04T00:35:40.836Z,73.65
2022-12-04T00:38:07.674Z,72.48
2022-12-04T00:40:34.184Z,72.19
2022-12-04T00:43:00.999Z,72.41
2022-12-04T00:45:27.473Z,71.85
2022-12-04T00:47:54.012Z,72.49
2022-12-04T00:50:20.422Z,72.93
2022-12-04T00:52:46.839Z,73.52
2022-12-04T00:55:13.274Z,73.22
2022-12-04T00:57:39.923Z,72.80
2022-12-04T01:00:07.208Z,72.63
2022-12-04T01:02:33.710Z,72.68
2022-12-04T01:05:01.570Z,73.04
2022-12-04T01:07:28.120Z,71.43
2022-12-04T01:09:54.745Z,72.34
2022-12-04T01:12:21.435Z,73.11
2022-12-04T01:14:47.850Z,71.87
2022-12-04T01:17:14.243Z,72.72
2022-12-04T01:19:40.679Z,73.52
2022-12-04T01:22:07.068Z,72.85
2022-12-04T01:24:33.439Z,73.62
2022-12-04T01:26:59.873Z,72.94
2022-12-04T01:29:26.268Z,73.29
2022-12-04T01:31:52.787Z,73.48
2022-12-04T01:34:19.345Z,73.58
2022-12-04T01:36:45.807Z,72.56
2022-12-04T01:39:12.288Z,73.11
2022-12-04T01:41:38.713Z,73.58
2022-12-04T01:44:20.605Z,72.75
2022-12-04T01:46:58.173Z,71.71
2022-12-04T01:49:33.516Z,73.76
2022-12-04T01:52:13.797Z,73.78
2022-12-04T01:54:44.105Z,73.75
2022-12-04T01:57:18.243Z,73.27
2022-12-04T02:00:08.934Z,72.81
2022-12-04T02:02:39.247Z,72.89
2022-12-04T02:05:10.064Z,73.54
2022-12-04T02:07:38.331Z,73.53
2022-12-04T02:10:08.644Z,73.36
2022-12-04T02:12:50.389Z,73.22
2022-12-04T02:15:25.280Z,72.81
2022-12-04T02:18:03.787Z,74.12
2022-12-04T02:20:43.349Z,73.71
2022-12-04T02:23:15.921Z,74.29
2022-12-04T02:25:54.636Z,73.55
2022-12-04T02:28:28.443Z,75.16
2022-12-04T02:31:00.753Z,73.74
2022-12-04T02:33:28.635Z,73.68
2022-12-04T02:36:06.452Z,74.70
2022-12-04T02:38:37.339Z,75.04
2022-12-04T02:41:13.403Z,74.67
2022-12-04T02:43:55.820Z,74.63
2022-12-04T02:46:32.238Z,74.59
2022-12-04T02:49:03.642Z,74.27
2022-12-04T02:51:34.013Z,74.03
2022-12-04T02:54:18.462Z,75.04
2022-12-04T02:56:47.667Z,74.37
2022-12-04T02:59:22.797Z,73.85
2022-12-04T03:01:54.616Z,74.64
2022-12-04T03:04:25.474Z,74.08
2022-12-04T03:06:59.640Z,74.78
2022-12-04T03:09:41.114Z,74.53
2022-12-04T03:12:20.124Z,75.45
2022-12-04T03:15:13.611Z,75.62
2022-12-04T03:17:50.754Z,74.80
2022-12-04T03:20:17.496Z,75.36
2022-12-04T03:22:48.980Z,75.46
2022-12-04T03:25:15.401Z,75.29
2022-12-04T03:28:00.034Z,75.22
2022-12-04T03:30:35.518Z,74.89
2022-12-04T03:33:07.894Z,75.42
2022-12-04T03:35:44.776Z,75.58
2022-12-04T03:38:49.859Z,76.53
2022-12-04T03:41:21.968Z,76.11
2022-12-04T03:44:06.607Z,76.58
2022-12-04T03:46:45.833Z,75.58
2022-12-04T03:49:52.528Z,76.02
2022-12-04T03:52:34.014Z,75.29
2022-12-04T03:55:08.630Z,76.59
2022-12-04T03:57:42.301Z,76.72
2022-12-04T04:00:22.463Z,75.63
2022-12-04T04:02:52.948Z,75.21
2022-12-04T04:05:20.864Z,76.93
2022-12-04T04:07:55.463Z,77.46
2022-12-04T04:10:26.469Z,77.40
2022-12-04T04:13:21.933Z,77.52
2022-12-04T04:16:12.285Z,76.69
2022-12-04T04:19:00.356Z,75.67
2022-12-04T04:21:51.596Z,76.58
2022-12-04T04:24:42.200Z,75.89
2022-12-04T04:27:08.794Z,77.10
2022-12-04T04:29:35.778Z,77.06
2022-12-04T04:32:08.124Z,77.74
2022-12-04T04:35:00.414Z,77.47
2022-12-04T04:37:56.067Z,76.88
2022-12-04T04:40:29.181Z,77.66
2022-12-04T04:43:02.265Z,76.58
2022-12-04T04:45:38.563Z,76.24
2022-12-04T04:48:26.414Z,78.02
2022-12-04T04:50:53.881Z,78.00
2022-12-04T04:53:28.685Z,77.61
2022-12-04T04:55:55.944Z,77.51
2022-12-04T04:58:22.680Z,77.32
2022-12-04T05:01:19.047Z,76.23
2022-12-04T05:03:45.615Z,76.13
2022-12-04T05:06:12.320Z,77.16
2022-12-04T05:08:39.382Z,78.26
2022-12-04T05:11:06.737Z,76.64
2022-12-04T05:13:33.185Z,76.66
2022-12-04T05:16:01.932Z,77.37
2022-12-04T05:18:29.146Z,77.93
2022-12-04T05:20:56.053Z,77.05
2022-12-04T05:23:22.952Z,77.26
2022-12-04T05:25:49.727Z,76.51
2022-12-04T05:28:16.733Z,77.18
2022-12-04T05:30:43.236Z,77.63
2022-12-04T05:33:10.855Z,77.58
2022-12-04T05:35:37.248Z,77.38
2022-12-04T05:38:03.646Z,77.42
2022-12-04T05:40:30.052Z,78.05
2022-12-04T05:42:57.203Z,77.24
2022-12-04T05:45:23.605Z,77.05
2022-12-04T05:47:50.001Z,77.65
2022-12-04T05:50:16.449Z,76.68
2022-12-04T05:52:42.865Z,76.60
2022-12-04T05:55:09.367Z,76.68
2022-12-04T05:57:35.749Z,76.92
2022-12-04T06:00:02.167Z,76.49
2022-12-04T06:02:28.690Z,77.10
2022-12-04T06:04:55.128Z,77.51
2022-12-04T06:07:21.541Z,77.08
2022-12-04T06:09:47.942Z,77.88
2022-12-04T06:12:14.364Z,76.55
2022-12-04T06:14:40.798Z,77.28
2022-12-04T06:17:07.342Z,76.29
2022-12-04T06:19:33.857Z,76.90
2022-12-04T06:22:00.327Z,77.88
2022-12-04T06:24:26.741Z,77.09
2022-12-04T06:29:46.211Z,76.48
2022-12-04T06:32:16.477Z,76.75
2022-12-04T06:34:51.469Z,77.99
2022-12-04T06:37:17.915Z,77.04
2022-12-04T06:39:44.401Z,77.48
2022-12-04T06:42:10.796Z,77.07
2022-12-04T06:44:37.227Z,77.57
2022-12-04T06:47:03.603Z,77.93
2022-12-04T06:49:29.984Z,76.89
2022-12-04T06:51:56.863Z,76.10
2022-12-04T06:54:23.263Z,77.71
2022-12-04T06:56:49.862Z,76.99
2022-12-04T06:59:16.269Z,75.74
2022-12-04T07:01:42.783Z,76.35
2022-12-04T07:04:09.347Z,76.41
2022-12-04T07:06:38.877Z,77.99
2022-12-04T07:09:06.717Z,77.20
2022-12-04T07:11:34.115Z,76.40
2022-12-04T07:14:00.546Z,77.14
2022-12-04T07:16:28.225Z,77.46
2022-12-04T07:18:56.460Z,76.73
2022-12-04T07:21:29.181Z,77.61
2022-12-04T07:23:58.171Z,76.60
2022-12-04T07:26:26.351Z,77.66
2022-12-04T07:28:53.975Z,76.99
2022-12-04T07:31:23.049Z,77.30
2022-12-04T07:33:49.528Z,78.02
2022-12-04T07:36:22.050Z,77.20
2022-12-04T07:38:48.849Z,76.90
2022-12-04T07:41:15.715Z,77.83
2022-12-04T07:43:42.849Z,77.54
2022-12-04T07:46:15.519Z,78.59
2022-12-04T07:48:42.360Z,77.59
2022-12-04T07:51:14.220Z,77.46
2022-12-04T07:53:41.056Z,76.89
2022-12-04T07:56:07.797Z,77.45
2022-12-04T07:58:34.469Z,77.82
2022-12-04T08:01:12.307Z,77.34
2022-12-04T08:03:46.840Z,78.16
2022-12-04T08:06:14.870Z,77.78
2022-12-04T08:08:41.317Z,77.12
2022-12-04T08:11:10.649Z,78.65
2022-12-04T08:13:37.506Z,78.00
2022-12-04T08:16:05.089Z,78.49
2022-12-04T08:18:32.159Z,77.91
2022-12-04T08:21:11.068Z,79.45
2022-12-04T08:23:38.984Z,78.08
2022-12-04T08:26:06.134Z,79.47
2022-12-04T08:28:33.931Z,79.25
2022-12-04T08:31:06.208Z,79.84
2022-12-04T08:33:33.519Z,79.72
2022-12-04T08:36:00.151Z,78.24
2022-12-04T08:38:26.693Z,78.62
2022-12-04T08:40:53.066Z,78.49
2022-12-04T08:43:19.489Z,79.06
2022-12-04T08:45:55.154Z,78.15
2022-12-04T08:48:21.844Z,78.88
2022-12-04T08:50:48.214Z,77.89
2022-12-04T08:53:14.652Z,78.95
2022-12-04T08:55:41.323Z,78.26
2022-12-04T08:58:07.771Z,78.01
2022-12-04T09:00:34.266Z,78.33
2022-12-04T09:03:00.791Z,78.42
2022-12-04T09:05:27.206Z,78.10
2022-12-04T09:07:53.719Z,78.80
2022-12-04T09:10:20.327Z,78.72
2022-12-04T09:12:46.816Z,78.10
2022-12-04T09:15:13.410Z,78.58
2022-12-04T09:17:39.878Z,77.54
2022-12-04T09:20:08.112Z,78.95
2022-12-04T09:23:01.797Z,77.83
2022-12-04T09:25:22.251Z,78.62
2022-12-04T09:27:48.683Z,78.77
2022-12-04T09:30:15.237Z,78.38
2022-12-04T09:32:41.709Z,78.07
2022-12-04T09:35:08.711Z,78.44
2022-12-04T09:37:36.653Z,78.45
2022-12-04T09:40:07.586Z,77.71
2022-12-04T09:42:36.996Z,79.79
2022-12-04T09:45:25.663Z,79.26
2022-12-04T09:48:01.316Z,78.20
2022-12-04T09:50:43.559Z,78.99
2022-12-04T09:53:22.097Z,77.94
2022-12-04T09:56:01.382Z,77.49
2022-12-04T09:58:46.799Z,76.81
2022-12-04T10:01:29.106Z,77.58
2022-12-04T10:04:00.009Z,78.07
2022-12-04T10:06:43.909Z,77.60
2022-12-04T10:09:30.578Z,78.34
2022-12-04T10:11:59.947Z,77.81
2022-12-04T10:14:56.102Z,78.65
2022-12-04T10:17:49.650Z,77.37
2022-12-04T10:20:41.105Z,77.70
2022-12-04T10:23:36.969Z,78.08
2022-12-04T10:26:05.329Z,77.90
2022-12-04T10:28:33.677Z,77.26
2022-12-04T10:31:03.514Z,78.21
2022-12-04T10:34:02.106Z,78.31
2022-12-04T10:36:32.689Z,78.59
2022-12-04T10:39:00.693Z,77.58
2022-12-04T10:42:01.478Z,76.88
2022-12-04T10:44:27.952Z,77.09
2022-12-04T10:46:58.525Z,78.21
2022-12-04T10:49:28.541Z,79.04
2022-12-04T10:51:55.594Z,77.49
2022-12-04T10:54:33.908Z,78.31
2022-12-04T10:57:03.327Z,77.93
2022-12-04T10:59:30.429Z,79.44
2022-12-04T11:02:14.860Z,78.19
2022-12-04T11:04:41.985Z,78.98
2022-12-04T11:07:26.358Z,78.54
2022-12-04T11:10:05.264Z,78.66
2022-12-04T11:12:32.553Z,79.55
2022-12-04T11:15:07.792Z,79.48
2022-12-04T11:17:34.348Z,78.15
2022-12-04T11:20:15.257Z,78.83
2022-12-04T11:22:54.618Z,78.50
2022-12-04T11:25:23.437Z,79.22
2022-12-04T11:27:54.155Z,79.36
2022-12-04T11:30:26.354Z,79.01
2022-12-04T11:32:54.226Z,79.52
2022-12-04T11:35:23.263Z,77.79
2022-12-04T11:37:57.061Z,79.60
2022-12-04T11:40:25.559Z,78.58
2022-12-04T11:43:12.843Z,79.54
2022-12-04T11:45:40.022Z,78.98
2022-12-04T11:48:18.402Z,78.73
2022-12-04T11:51:06.522Z,78.82
2022-12-04T11:53:41.594Z,79.25
2022-12-04T11:56:16.853Z,78.99
2022-12-04T11:58:52.737Z,78.42
2022-12-04T12:01:57.969Z,78.00
2022-12-04T12:05:15.654Z,79.71
2022-12-04T12:08:03.695Z,78.66
2022-12-04T12:10:44.923Z,80.33
2022-12-04T12:13:41.959Z,78.82
2022-12-04T12:16:41.058Z,81.12
2022-12-04T12:19:34.950Z,79.41
2022-12-04T12:22:38.670Z,79.96
2022-12-04T12:25:18.913Z,80.78
2022-12-04T12:28:11.308Z,79.61
2022-12-04T12:30:52.402Z,79.48
2022-12-04T12:33:34.585Z,80.15
2022-12-04T12:36:08.450Z,79.68
2022-12-04T12:38:44.483Z,80.13
2022-12-04T12:41:15.461Z,79.36
2022-12-04T12:43:47.313Z,78.76
2022-12-04T12:46:19.922Z,79.07
2022-12-04T12:49:13.171Z,79.00
2022-12-04T12:51:51.365Z,78.60
2022-12-04T12:54:31.276Z,78.87
2022-12-04T12:57:06.313Z,78.97
2022-12-04T12:59:34.034Z,78.48
2022-12-04T13:02:29.269Z,78.19
2022-12-04T13:05:01.140Z,78.35
2022-12-04T13:07:27.622Z,79.41
2022-12-04T13:10:12.544Z,79.53
2022-12-04T13:12:47.327Z,79.48
2022-12-04T13:15:16.577Z,79.19
2022-12-04T13:17:45.126Z,78.72
2022-12-04T13:20:22.148Z,78.20
2022-12-04T13:22:53.932Z,78.67
2022-12-04T13:25:31.327Z,77.97
2022-12-04T13:27:57.697Z,78.82
2022-12-04T13:30:32.746Z,78.71
2022-12-04T13:33:23.468Z,78.12
2022-12-04T13:36:11.585Z,79.33
2022-12-04T13:39:09.016Z,78.34
2022-12-04T13:41:38.697Z,77.72
2022-12-04T13:44:19.726Z,79.16
2022-12-04T13:46:58.197Z,78.13
2022-12-04T13:49:30.777Z,77.98
2022-12-04T13:51:59.040Z,78.37
2022-12-04T13:54:36.502Z,77.37
2022-12-04T13:57:15.008Z,78.38
2022-12-04T13:59:42.740Z,77.79
2022-12-04T14:02:35.263Z,78.41
2022-12-04T14:05:05.381Z,78.83
2022-12-04T14:07:37.738Z,78.34
2022-12-04T14:10:07.640Z,78.36
2022-12-04T14:12:39.682Z,79.94
2022-12-04T14:15:21.664Z,79.98
2022-12-04T14:18:06.961Z,78.57
2022-12-04T14:20:34.739Z,78.18
2022-12-04T14:23:35.038Z,78.52
2022-12-04T14:26:03.161Z,80.03
2022-12-04T14:28:37.327Z,79.62
2022-12-04T14:31:14.308Z,80.82
2022-12-04T14:33:55.035Z,80.04
2022-12-04T14:36:28.044Z,80.65
2022-12-04T14:39:24.347Z,81.15
2022-12-04T14:41:52.178Z,81.35
2022-12-04T14:44:29.476Z,82.13
2022-12-04T14:47:03.370Z,80.52
2022-12-04T14:49:32.516Z,80.38
2022-12-04T14:52:14.922Z,81.43
2022-12-04T14:55:17.718Z,80.63
2022-12-04T14:58:24.094Z,82.13
2022-12-04T15:00:52.533Z,80.80
2022-12-04T15:03:19.343Z,80.18
2022-12-04T15:05:45.853Z,82.16
2022-12-04T15:08:14.205Z,80.80
2022-12-04T15:11:06.578Z,80.73
2022-12-04T15:13:34.798Z,81.04
2022-12-04T15:16:21.943Z,81.20
2022-12-04T15:19:01.005Z,81.15
2022-12-04T15:21:38.822Z,81.22
2022-12-04T15:24:20.026Z,80.28
2022-12-04T15:26:48.360Z,81.02
2022-12-04T15:29:22.175Z,81.02
2022-12-04T15:31:56.668Z,81.36
2022-12-04T15:34:37.832Z,80.43
2022-12-04T15:37:08.576Z,81.33
2022-12-04T15:39:37.914Z,81.81
2022-12-04T15:42:23.744Z,82.68
2022-12-04T15:44:53.540Z,81.83
2022-12-04T15:47:25.748Z,82.80
2022-12-04T15:49:52.256Z,81.65
2022-12-04T15:52:23.561Z,81.22
2022-12-04T15:54:57.843Z,81.34
2022-12-04T15:57:34.116Z,80.93
2022-12-04T16:00:05.136Z,81.14
2022-12-04T16:02:39.534Z,81.79
2022-12-04T16:05:21.126Z,81.86
2022-12-04T16:07:49.334Z,80.39
2022-12-04T16:10:21.340Z,81.05
2022-12-04T16:12:56.795Z,81.11
2022-12-04T16:15:25.603Z,80.58
2022-12-04T16:17:52.939Z,81.25
2022-12-04T16:20:20.551Z,81.21
2022-12-04T16:22:52.181Z,82.17
2022-12-04T16:25:18.645Z,82.24
2022-12-04T16:27:45.045Z,80.82
2022-12-04T16:30:13.796Z,82.51
2022-12-04T16:32:40.228Z,80.44
2022-12-04T16:35:07.038Z,80.21
2022-12-04T16:37:33.592Z,80.55
2022-12-04T16:40:00.079Z,81.34
2022-12-04T16:42:29.440Z,80.50
2022-12-04T16:44:56.601Z,79.95
2022-12-04T16:47:23.206Z,80.17
2022-12-04T16:49:51.550Z,81.77
2022-12-04T16:52:18.749Z,81.22
2022-12-04T16:54:45.418Z,80.40
2022-12-04T16:57:11.936Z,81.00
2022-12-04T16:59:38.567Z,81.76
2022-12-04T17:02:17.447Z,80.87
2022-12-04T17:04:44.071Z,81.83
2022-12-04T17:07:10.559Z,80.34
2022-12-04T17:09:37.040Z,81.25
2022-12-04T17:12:03.588Z,81.60
2022-12-04T17:14:29.992Z,80.73
2022-12-04T17:16:58.627Z,80.95
2022-12-04T17:19:25.113Z,81.61
2022-12-04T17:21:51.533Z,80.91
2022-12-04T17:24:17.968Z,81.93
2022-12-04T17:26:44.407Z,82.26
2022-12-04T17:29:10.834Z,81.40
2022-12-04T17:31:37.396Z,80.49
2022-12-04T17:34:03.853Z,81.29
2022-12-04T17:36:30.325Z,80.80
2022-12-04T17:38:58.689Z,79.81
2022-12-04T17:41:25.255Z,80.93
2022-12-04T17:43:51.796Z,81.17
2022-12-04T17:46:21.597Z,81.76
2022-12-04T17:48:48.802Z,81.07
2022-12-04T17:51:19.257Z,82.04
2022-12-04T17:53:46.950Z,81.46
2022-12-04T17:56:17.248Z,81.34
2022-12-04T17:58:44.980Z,81.51
2022-12-04T18:01:14.792Z,81.41
2022-12-04T18:03:43.252Z,81.77
2022-12-04T18:06:14.850Z,81.26
2022-12-04T18:08:46.580Z,81.98
2022-12-04T18:11:16.887Z,81.50
2022-12-04T18:13:43.291Z,82.41
2022-12-04T18:16:11.192Z,80.88
2022-12-04T18:18:39.230Z,81.36
2022-12-04T18:21:10.797Z,80.48
2022-12-04T18:23:40.085Z,82.23
2022-12-04T18:26:06.835Z,82.62
2022-12-04T18:28:33.298Z,81.04
2022-12-04T18:31:05.276Z,82.02
2022-12-04T18:33:33.516Z,80.52
2022-12-04T18:36:00.683Z,81.40
2022-12-04T18:38:30.510Z,81.93
2022-12-04T18:41:02.777Z,80.58
2022-12-04T18:43:29.409Z,81.27
2022-12-04T18:46:07.676Z,80.46
2022-12-04T18:48:35.482Z,81.49
2022-12-04T18:51:02.422Z,81.09
2022-12-04T18:53:28.986Z,79.91
2022-12-04T18:55:55.520Z,80.94
2022-12-04T18:58:22.905Z,81.09
2022-12-04T19:00:51.624Z,80.65
2022-12-04T19:03:18.373Z,81.68
2022-12-04T19:05:51.080Z,81.56
2022-12-04T19:08:17.780Z,81.78
2022-12-04T19:10:44.335Z,82.41
2022-12-04T19:13:10.773Z,80.53
2022-12-04T19:15:42.859Z,80.82
2022-12-04T19:18:09.437Z,80.43
2022-12-04T19:20:39.613Z,82.21
2022-12-04T19:23:06.068Z,82.64
2022-12-04T19:25:32.507Z,82.37
2022-12-04T19:27:59.122Z,81.36
2022-12-04T19:30:26.423Z,82.63
2022-12-04T19:32:52.938Z,81.10
2022-12-04T19:35:19.378Z,81.34
2022-12-04T19:37:51.120Z,81.85
2022-12-04T19:40:19.216Z,81.64
2022-12-04T19:42:45.650Z,81.92
2022-12-04T19:45:12.198Z,82.48
2022-12-04T19:47:38.842Z,81.62
2022-12-04T19:50:06.119Z,80.99
2022-12-04T19:52:33.547Z,81.73
2022-12-04T19:54:59.994Z,81.14
2022-12-04T19:57:26.463Z,81.81
2022-12-04T19:59:52.853Z,81.94
2022-12-04T20:02:19.768Z,80.65
2022-12-04T20:04:46.403Z,81.21
2022-12-04T20:07:12.884Z,80.50
2022-12-04T20:09:39.404Z,82.22
2022-12-04T20:12:06.443Z,80.45
2022-12-04T20:14:32.919Z,80.96
2022-12-04T20:17:01.524Z,80.53
2022-12-04T20:19:28.005Z,81.03
2022-12-04T20:21:59.141Z,80.69
2022-12-04T20:24:25.901Z,81.22
2022-12-04T20:26:52.545Z,81.78
2022-12-04T20:29:19.102Z,80.88
2022-12-04T20:31:46.635Z,80.34
2022-12-04T20:34:15.498Z,80.33
2022-12-04T20:36:44.060Z,80.39
2022-12-04T20:39:11.923Z,81.71
2022-12-04T20:41:39.240Z,80.61
2022-12-04T20:44:07.734Z,81.69
2022-12-04T20:46:37.016Z,81.69
2022-12-04T20:49:06.432Z,80.89
2022-12-04T20:51:39.477Z,80.96
2022-12-04T20:54:08.812Z,81.57
2022-12-04T20:56:37.601Z,80.81
2022-12-04T20:59:07.547Z,81.08
2022-12-04T21:02:00.846Z,80.93
2022-12-04T21:04:27.250Z,81.16
2022-12-04T21:06:53.647Z,81.29
2022-12-04T21:09:22.986Z,81.62
2022-12-04T21:11:54.927Z,81.18
2022-12-04T21:14:46.093Z,81.56
2022-12-04T21:17:18.293Z,82.19
2022-12-04T21:19:46.981Z,81.58
2022-12-04T21:22:13.954Z,82.21
2022-12-04T21:24:42.048Z,81.73
2022-12-04T21:27:12.411Z,81.55
2022-12-04T21:29:43.061Z,80.99
2022-12-04T21:32:09.491Z,81.55
2022-12-04T21:34:35.931Z,80.62
2022-12-04T21:37:02.385Z,82.39
2022-12-04T21:39:28.803Z,82.88
2022-12-04T21:42:13.688Z,81.63
2022-12-04T21:44:40.129Z,81.65
2022-12-04T21:47:06.760Z,80.91
2022-12-04T21:49:33.188Z,81.81
2022-12-04T21:51:59.791Z,80.69
2022-12-04T21:54:27.736Z,81.77
2022-12-04T21:56:55.148Z,81.18
2022-12-04T21:59:22.415Z,81.84
2022-12-04T22:01:48.944Z,81.97
2022-12-04T22:04:15.876Z,81.21
2022-12-04T22:06:42.577Z,81.91
2022-12-04T22:09:11.436Z,82.33
2022-12-04T22:11:41.318Z,81.74
2022-12-04T22:14:08.652Z,81.73
2022-12-04T22:16:41.293Z,80.96
2022-12-04T22:19:09.328Z,80.59
2022-12-04T22:21:35.695Z,81.84
2022-12-04T22:24:03.669Z,80.23
2022-12-04T22:26:31.457Z,81.31
2022-12-04T22:28:57.945Z,80.38
2022-12-04T22:31:26.973Z,81.43
2022-12-04T22:33:55.540Z,81.01
2022-12-04T22:36:24.799Z,81.09
2022-12-04T22:41:38.478Z,81.68
2022-12-04T22:44:05.957Z,81.05
2022-12-04T22:46:32.981Z,81.38
2022-12-04T22:48:59.954Z,81.20
2022-12-04T22:51:27.207Z,81.42
2022-12-04T22:53:55.805Z,80.42
2022-12-04T22:56:30.206Z,81.95
2022-12-04T22:58:58.041Z,81.92
2022-12-04T23:01:30.176Z,81.50
2022-12-04T23:03:57.445Z,81.83
2022-12-04T23:06:26.611Z,81.46
2022-12-04T23:09:02.296Z,82.92
2022-12-04T23:11:29.247Z,82.20
2022-12-04T23:13:59.947Z,81.54
2022-12-04T23:16:28.246Z,82.69
2022-12-04T23:18:54.692Z,83.31
2022-12-04T23:21:22.317Z,81.31
2022-12-04T23:23:50.620Z,81.96
2022-12-04T23:26:22.779Z,82.18
2022-12-04T23:28:49.188Z,81.89
2022-12-04T23:31:16.463Z,81.96
2022-12-04T23:33:43.065Z,82.30
2022-12-04T23:36:11.316Z,83.03
2022-12-04T23:38:39.222Z,82.70
2022-12-04T23:41:13.571Z,82.77
2022-12-04T23:43:40.717Z,83.51
2022-12-04T23:46:11.272Z,82.05
2022-12-04T23:48:42.582Z,82.10
2022-12-04T23:51:10.594Z,81.20
2022-12-04T23:53:37.593Z,82.08
2022-12-04T23:56:08.451Z,81.62
2022-12-04T23:58:36.433Z,82.01
